createdAt,value
2017-08-19T00:00:43.090Z,3.50
2017-08-19T00:03:11.976Z,4.43
2017-08-19T00:05:40.821Z,4.15
2017-08-19T00:08:09.655Z,4.70
2017-08-19T00:10:38.543Z,4.53
2017-08-19T00:13:07.435Z,3.60
2017-08-19T00:15:36.358Z,4.12
2017-08-19T00:18:05.217Z,3.42
2017-08-19T00:20:34.064Z,3.30
2017-08-19T00:23:02.941Z,4.05
2017-08-19T00:25:31.839Z,3.17
2017-08-19T00:28:00.726Z,5.62
2017-08-19T00:30:29.613Z,4.75
2017-08-19T00:32:58.509Z,3.17
2017-08-19T00:35:27.406Z,4.28
2017-08-19T00:37:56.302Z,1.62
2017-08-19T00:40:25.199Z,2.22
2017-08-19T00:42:54.096Z,2.20
2017-08-19T00:45:22.986Z,6.22
2017-08-19T00:47:51.877Z,2.55
2017-08-19T00:50:20.770Z,2.28
2017-08-19T00:52:49.341Z,4.65
2017-08-19T00:55:18.221Z,3.17
2017-08-19T00:57:47.123Z,5.10
2017-08-19T01:00:15.991Z,2.40
2017-08-19T01:02:44.528Z,2.87
2017-08-19T01:05:13.829Z,3.12
2017-08-19T01:07:42.012Z,3.30
2017-08-19T01:10:10.875Z,3.00
2017-08-19T01:12:39.757Z,3.65
2017-08-19T01:15:08.650Z,5.30
2017-08-19T01:17:37.520Z,5.43
2017-08-19T01:20:05.720Z,3.80
2017-08-19T01:22:34.619Z,4.10
2017-08-19T01:25:14.632Z,4.93
2017-08-19T01:27:43.529Z,3.87
2017-08-19T01:30:13.383Z,6.97
2017-08-19T01:32:43.036Z,3.60
2017-08-19T01:35:11.882Z,5.40
2017-08-19T01:37:40.769Z,3.87
2017-08-19T01:40:09.675Z,3.47
2017-08-19T01:42:38.570Z,2.40
2017-08-19T01:45:07.470Z,3.35
2017-08-19T01:47:36.363Z,2.90
2017-08-19T01:50:05.218Z,2.85
2017-08-19T01:52:34.105Z,3.08
2017-08-19T01:55:02.960Z,2.67
2017-08-19T01:57:31.811Z,3.55
2017-08-19T02:00:00.693Z,4.85
2017-08-19T02:02:29.618Z,3.00
2017-08-19T02:04:58.521Z,2.95
2017-08-19T02:07:27.402Z,2.30
2017-08-19T02:09:56.294Z,4.03
2017-08-19T02:12:25.192Z,2.60
2017-08-19T02:14:54.080Z,4.32
2017-08-19T02:17:22.982Z,2.70
2017-08-19T02:19:51.865Z,4.50
2017-08-19T02:22:20.748Z,2.40
2017-08-19T02:24:49.450Z,2.37
2017-08-19T02:27:18.324Z,4.55
2017-08-19T02:29:47.177Z,2.20
2017-08-19T02:32:16.072Z,4.30
2017-08-19T02:34:44.982Z,4.43
2017-08-19T02:37:13.868Z,3.37
2017-08-19T02:39:43.520Z,4.22
2017-08-19T02:42:12.405Z,2.25
2017-08-19T02:47:19.326Z,4.05
2017-08-19T02:49:49.096Z,3.62
2017-08-19T02:52:17.981Z,3.60
2017-08-19T02:54:46.886Z,7.68
2017-08-19T02:57:15.778Z,3.72
2017-08-19T02:59:44.639Z,3.87
2017-08-19T03:02:13.494Z,3.58
2017-08-19T03:04:42.386Z,5.22
2017-08-19T03:07:11.282Z,2.50
2017-08-19T03:09:40.157Z,5.15
2017-08-19T03:12:09.048Z,3.25
2017-08-19T03:14:37.922Z,7.22
2017-08-19T03:17:06.800Z,2.50
2017-08-19T03:19:35.678Z,3.00
2017-08-19T03:22:05.342Z,3.40
2017-08-19T03:24:34.222Z,2.62
2017-08-19T03:27:03.105Z,3.53
2017-08-19T03:29:31.999Z,2.33
2017-08-19T03:32:00.890Z,3.42
2017-08-19T03:34:29.787Z,2.35
2017-08-19T03:36:58.684Z,4.03
2017-08-19T03:39:27.565Z,2.90
2017-08-19T03:41:56.449Z,1.98
2017-08-19T03:44:25.336Z,2.67
2017-08-19T03:46:54.238Z,3.10
2017-08-19T03:49:23.130Z,6.03
2017-08-19T03:51:52.024Z,2.58
2017-08-19T03:54:20.905Z,3.58
2017-08-19T03:56:49.793Z,4.82
2017-08-19T03:59:18.695Z,5.82
2017-08-19T04:01:47.572Z,2.05
2017-08-19T04:04:16.456Z,4.22
2017-08-19T04:06:45.367Z,3.58
2017-08-19T04:09:14.263Z,3.33
2017-08-19T04:11:43.258Z,3.03
2017-08-19T04:14:12.152Z,2.67
2017-08-19T04:16:41.039Z,2.75
2017-08-19T04:19:09.942Z,3.08
2017-08-19T04:21:38.803Z,2.87
2017-08-19T04:24:08.456Z,2.58
2017-08-19T04:26:37.336Z,2.30
2017-08-19T04:29:06.221Z,2.53
2017-08-19T04:31:35.110Z,4.12
2017-08-19T04:34:04.003Z,5.82
2017-08-19T04:36:32.894Z,3.72
2017-08-19T04:39:01.778Z,3.00
2017-08-19T04:41:30.311Z,3.15
2017-08-19T04:43:59.210Z,4.55
2017-08-19T04:46:28.106Z,3.45
2017-08-19T04:48:56.963Z,2.20
2017-08-19T04:51:25.813Z,2.85
2017-08-19T04:53:55.478Z,3.30
2017-08-19T04:56:24.373Z,4.40
2017-08-19T04:58:53.257Z,3.25
2017-08-19T05:01:22.151Z,3.62
2017-08-19T05:03:51.001Z,3.45
2017-08-19T05:06:19.850Z,3.35
2017-08-19T05:08:48.755Z,4.37
2017-08-19T05:11:17.641Z,2.95
2017-08-19T05:13:46.533Z,3.85
2017-08-19T05:16:15.425Z,3.67
2017-08-19T05:18:44.325Z,4.57
2017-08-19T05:21:13.183Z,5.20
2017-08-19T05:23:42.050Z,2.62
2017-08-19T05:26:10.946Z,3.80
2017-08-19T05:28:39.859Z,2.95
2017-08-19T05:31:08.752Z,2.78
2017-08-19T05:33:37.615Z,4.28
2017-08-19T05:36:06.493Z,5.12
2017-08-19T05:38:35.351Z,3.40
2017-08-19T05:41:04.247Z,2.45
2017-08-19T05:43:33.142Z,2.80
2017-08-19T05:46:02.028Z,4.60
2017-08-19T05:48:30.930Z,2.00
2017-08-19T05:50:59.829Z,3.05
2017-08-19T05:53:29.490Z,3.45
2017-08-19T05:55:58.374Z,2.87
2017-08-19T05:58:27.278Z,7.47
2017-08-19T06:00:56.141Z,4.03
2017-08-19T06:03:24.990Z,1.92
2017-08-19T06:05:53.838Z,2.47
2017-08-19T06:08:22.533Z,1.85
2017-08-19T06:10:53.621Z,5.40
2017-08-19T06:13:22.518Z,3.87
2017-08-19T06:15:52.244Z,4.70
2017-08-19T06:18:21.125Z,2.75
2017-08-19T06:20:50.025Z,2.95
2017-08-19T06:23:23.338Z,5.20
2017-08-19T06:25:52.243Z,4.28
2017-08-19T06:28:21.138Z,4.50
2017-08-19T06:30:50.033Z,4.87
2017-08-19T06:39:04.144Z,3.58
2017-08-19T06:41:33.028Z,3.83
2017-08-19T06:49:48.138Z,3.87
2017-08-19T06:52:17.019Z,2.78
2017-08-19T06:57:40.144Z,3.83
2017-08-19T07:00:09.597Z,5.47
2017-08-19T07:02:38.500Z,4.75
2017-08-19T07:28:09.095Z,2.58
2017-08-19T07:30:59.474Z,2.05
2017-08-19T07:33:28.176Z,1.70
2017-08-19T07:44:32.030Z,6.93
2017-08-19T07:49:56.242Z,4.22
2017-08-19T07:52:29.823Z,4.97
2017-08-19T16:34:58.247Z,3.65
2017-08-19T16:37:27.141Z,4.25
2017-08-19T16:39:56.027Z,2.67
2017-08-19T16:42:24.932Z,4.55
2017-08-19T16:44:53.828Z,3.25
2017-08-19T16:47:22.538Z,2.25
2017-08-19T16:49:51.437Z,4.28
2017-08-19T16:52:20.337Z,3.47
2017-08-19T16:54:49.224Z,4.03
2017-08-19T16:57:18.208Z,2.53
2017-08-19T16:59:48.589Z,2.20
2017-08-19T17:02:25.861Z,2.67
2017-08-19T17:04:59.158Z,3.03
2017-08-19T17:07:36.487Z,3.25
2017-08-19T17:13:08.809Z,3.87
2017-08-19T17:15:45.124Z,3.67
2017-08-19T17:21:13.390Z,2.45
2017-08-19T17:23:47.275Z,3.72
2017-08-19T17:26:18.075Z,2.12
2017-08-19T17:28:49.906Z,4.50
2017-08-19T17:31:18.817Z,4.07
2017-08-19T17:33:50.138Z,6.45
2017-08-19T17:36:19.027Z,2.33
2017-08-19T17:39:04.360Z,3.22
2017-08-19T17:41:35.114Z,2.92
2017-08-19T17:44:05.674Z,3.30
2017-08-19T17:46:34.618Z,2.85
2017-08-19T17:49:03.535Z,6.12
2017-08-19T17:51:32.442Z,3.37
2017-08-19T17:54:01.335Z,3.15
2017-08-19T17:56:30.594Z,2.72
2017-08-19T17:58:59.725Z,2.67
2017-08-19T18:01:28.621Z,4.18
2017-08-19T18:03:57.531Z,4.87
2017-08-19T18:06:29.796Z,7.40
2017-08-19T18:09:00.597Z,3.65
2017-08-19T18:11:29.491Z,2.75
2017-08-19T18:13:59.087Z,2.22
2017-08-19T18:16:27.962Z,7.32
2017-08-19T18:18:56.857Z,4.90
2017-08-19T18:21:25.750Z,1.90
2017-08-19T18:23:54.650Z,4.47
2017-08-19T18:26:23.540Z,3.65
2017-08-19T18:28:52.426Z,6.07
2017-08-19T18:31:21.326Z,2.62
2017-08-19T18:33:50.222Z,6.60
2017-08-19T18:36:19.114Z,5.10
2017-08-19T18:38:48.011Z,3.30
2017-08-19T18:41:16.915Z,6.15
2017-08-19T18:43:45.805Z,3.20
2017-08-19T18:46:14.808Z,6.65
2017-08-19T18:48:43.711Z,5.18
2017-08-19T18:51:12.606Z,6.82
2017-08-19T18:53:41.485Z,5.68
2017-08-19T18:56:10.411Z,15.43
2017-08-19T18:58:39.330Z,3.97
2017-08-19T19:01:08.218Z,3.40
2017-08-19T19:03:37.115Z,4.75
2017-08-19T19:06:06.356Z,2.87
2017-08-19T19:08:35.255Z,5.18
2017-08-19T19:11:04.134Z,3.40
2017-08-19T19:13:32.992Z,7.05
2017-08-19T19:16:01.934Z,8.68
2017-08-19T19:18:30.834Z,4.93
2017-08-19T19:21:04.173Z,4.45
2017-08-19T19:23:39.743Z,6.03
2017-08-19T19:29:07.898Z,6.00
2017-08-19T19:37:24.260Z,12.65
2017-08-19T19:39:53.155Z,5.15
2017-08-19T19:42:22.193Z,5.87
2017-08-19T19:44:51.113Z,5.45
2017-08-19T19:47:20.758Z,5.45
2017-08-19T19:49:49.665Z,8.90
2017-08-19T19:54:54.161Z,6.35
2017-08-19T19:57:24.914Z,7.70
2017-08-19T19:59:53.809Z,6.80
2017-08-19T20:02:24.350Z,9.68
2017-08-19T20:04:54.399Z,6.30
2017-08-19T20:07:23.303Z,10.63
2017-08-19T20:09:52.197Z,7.82
2017-08-19T20:12:22.094Z,7.05
2017-08-19T20:14:50.956Z,9.95
2017-08-19T20:17:19.848Z,10.57
2017-08-19T20:19:48.745Z,9.35
2017-08-19T20:22:18.246Z,8.13
2017-08-19T20:25:22.549Z,12.30
2017-08-19T20:27:51.539Z,12.30
2017-08-19T20:30:20.431Z,8.60
2017-08-19T20:32:49.331Z,26.00
2017-08-19T20:35:18.237Z,43.15
2017-08-19T20:37:47.146Z,38.70
2017-08-19T20:40:16.054Z,49.28
2017-08-19T20:42:44.933Z,41.20
2017-08-19T20:45:13.813Z,39.85
2017-08-19T20:47:42.717Z,47.92
2017-08-19T20:50:11.616Z,40.22
2017-08-19T20:52:41.375Z,35.15
2017-08-19T20:55:10.303Z,36.60
2017-08-19T20:57:39.214Z,37.13
2017-08-19T21:00:08.127Z,30.02
2017-08-19T21:02:37.816Z,26.90
2017-08-19T21:05:06.709Z,19.17
2017-08-19T21:07:35.622Z,17.05
2017-08-19T21:10:05.309Z,18.83
2017-08-19T21:12:34.234Z,13.55
2017-08-19T21:15:03.142Z,14.90
2017-08-19T21:17:32.006Z,11.68
2017-08-19T21:20:01.674Z,12.15
2017-08-19T21:22:30.557Z,12.13
2017-08-19T21:24:59.465Z,13.93
2017-08-19T21:27:28.375Z,10.35
2017-08-19T21:29:57.278Z,11.52
2017-08-19T21:32:26.177Z,10.57
2017-08-19T21:34:55.086Z,8.80
2017-08-19T21:37:23.991Z,11.23
2017-08-19T21:39:52.898Z,14.95
2017-08-19T21:42:21.757Z,18.67
2017-08-19T21:44:50.621Z,19.77
2017-08-19T21:47:19.530Z,10.43
2017-08-19T21:49:48.422Z,10.82
2017-08-19T21:52:18.094Z,11.70
2017-08-19T21:54:46.999Z,10.98
2017-08-19T21:57:15.875Z,14.73
2017-08-19T21:59:44.748Z,10.93
2017-08-19T22:02:14.093Z,13.60
2017-08-19T22:04:42.991Z,13.13
2017-08-19T22:07:11.889Z,11.50
2017-08-19T22:09:40.743Z,11.45
2017-08-19T22:12:09.617Z,12.43
2017-08-19T22:14:38.194Z,14.70
2017-08-19T22:17:07.085Z,12.77
2017-08-19T22:19:35.986Z,14.15
2017-08-19T22:22:04.882Z,13.70
2017-08-19T22:24:33.793Z,13.13
2017-08-19T22:27:02.693Z,10.68
2017-08-19T22:29:31.562Z,12.73
2017-08-19T22:32:00.463Z,11.20
2017-08-19T22:34:29.385Z,10.07
2017-08-19T22:36:58.337Z,9.98
2017-08-19T22:39:27.224Z,10.63
2017-08-19T22:41:56.196Z,10.18
2017-08-19T22:44:24.810Z,7.43
2017-08-19T22:46:53.697Z,9.43
2017-08-19T22:49:22.587Z,16.98
2017-08-19T22:51:51.451Z,8.90
2017-08-19T22:54:21.072Z,8.02
2017-08-19T22:56:49.962Z,16.23
2017-08-19T22:59:18.858Z,10.80
2017-08-19T23:01:47.754Z,15.50
2017-08-19T23:04:16.603Z,7.75
2017-08-19T23:06:45.476Z,8.20
2017-08-19T23:09:14.367Z,8.45
2017-08-19T23:11:43.244Z,7.57
2017-08-19T23:14:12.146Z,9.23
2017-08-19T23:16:41.033Z,10.15
2017-08-19T23:19:09.916Z,8.60
2017-08-19T23:21:38.802Z,7.72
2017-08-19T23:24:07.668Z,9.98
2017-08-19T23:26:36.817Z,10.43
2017-08-19T23:29:05.710Z,10.70
2017-08-19T23:31:34.588Z,7.75
2017-08-19T23:34:03.444Z,10.48
2017-08-19T23:36:32.296Z,16.40
2017-08-19T23:39:01.177Z,8.48
2017-08-19T23:41:30.525Z,7.90
2017-08-19T23:43:59.220Z,11.02
2017-08-19T23:46:28.103Z,10.05
2017-08-19T23:48:56.996Z,9.13
2017-08-19T23:51:25.881Z,9.65
2017-08-19T23:53:54.767Z,8.40
2017-08-19T23:56:23.653Z,9.88
2017-08-19T23:58:52.550Z,14.70
